Time;durP1;ratioP1;P1;durP2;ratioP2;P2;SDS_P1;SDS_P2;PMS_P1;PMS_P2;Temp;Humidity;BMP_temperature;BMP_pressure;BME280_temperature;BME280_humidity;BME280_pressure;Samples;Min_cycle;Max_cycle;Signal;HPM_P1;HPM_P2
2022/03/14 06:01:38;;;;;;;1999.90;999.90;;;;;;;;;;6190751;23;20217;-69
2022/03/14 06:04:24;;;;;;;1999.90;999.90;;;;;;;;;;6213739;23;20300;-68
2022/03/14 06:07:09;;;;;;;1999.90;999.90;;;;;;;;;;6214117;23;20167;-69
2022/03/14 06:09:54;;;;;;;1999.90;999.90;;;;;;;;;;6212681;23;20218;-68
2022/03/14 06:12:39;;;;;;;1999.90;999.90;;;;;;;;;;6184800;23;20534;-69
2022/03/14 06:15:25;;;;;;;1999.90;999.90;;;;;;;;;;6184085;23;20169;-69
2022/03/14 06:18:11;;;;;;;1999.90;999.90;;;;;;;;;;6182828;23;20251;-70
2022/03/14 06:20:56;;;;;;;1999.90;999.90;;;;;;;;;;6184009;23;20254;-69
2022/03/14 06:23:41;;;;;;;1999.90;999.90;;;;;;;;;;6184027;23;20218;-69
2022/03/14 06:26:26;;;;;;;1999.90;999.90;;;;;;;;;;6183964;23;20278;-70
2022/03/14 06:29:11;;;;;;;1999.90;999.90;;;;;;;;;;6183355;23;20170;-69
2022/03/14 06:31:56;;;;;;;1999.90;999.90;;;;;;;;;;6183842;23;20662;-70
2022/03/14 06:34:42;;;;;;;1999.90;999.90;;;;;;;;;;6184014;23;20486;-69
2022/03/14 06:37:27;;;;;;;1999.90;999.90;;;;;;;;;;6183909;23;20245;-69
2022/03/14 06:40:13;;;;;;;1999.90;999.90;;;;;;;;;;6183518;23;20177;-69
2022/03/14 06:42:59;;;;;;;1999.90;999.90;;;;;;;;;;6183911;23;20214;-69
2022/03/14 06:45:45;;;;;;;1999.90;999.90;;;;;;;;;;6183801;23;20263;-69
2022/03/14 06:48:30;;;;;;;1999.90;999.90;;;;;;;;;;6182924;23;20185;-68
2022/03/14 06:51:16;;;;;;;1999.90;999.90;;;;;;;;;;6183314;23;20534;-69
2022/03/14 06:54:01;;;;;;;1999.90;999.90;;;;;;;;;;6184024;23;20231;-69
2022/03/14 06:56:47;;;;;;;1999.90;999.90;;;;;;;;;;6184427;23;20175;-70
2022/03/14 06:59:32;;;;;;;1999.90;999.90;;;;;;;;;;6182917;23;20166;-70
2022/03/14 07:02:17;;;;;;;1999.90;999.90;;;;;;;;;;6183598;23;20210;-69
2022/03/14 07:05:02;;;;;;;1999.90;999.90;;;;;;;;;;6183750;23;20519;-69
2022/03/14 07:07:49;;;;;;;1999.90;999.90;;;;;;;;;;6183245;23;20222;-69
2022/03/14 07:10:34;;;;;;;1999.90;999.90;;;;;;;;;;6183752;23;20221;-68
2022/03/14 07:13:19;;;;;;;1999.90;999.90;;;;;;;;;;6183709;23;20171;-69
2022/03/14 07:16:04;;;;;;;1999.90;999.90;;;;;;;;;;6183678;23;20168;-67
2022/03/14 07:18:49;;;;;;;1999.90;999.90;;;;;;;;;;6181561;23;20376;-69
2022/03/14 07:21:34;;;;;;;1999.90;999.90;;;;;;;;;;6183932;23;20206;-68
2022/03/14 07:24:20;;;;;;;1999.90;999.90;;;;;;;;;;6183417;23;20170;-70
2022/03/14 07:27:06;;;;;;;1999.90;999.90;;;;;;;;;;6184264;23;20649;-69
2022/03/14 07:29:50;;;;;;;1999.90;999.90;;;;;;;;;;6183577;23;20255;-70
2022/03/14 07:32:35;;;;;;;1999.90;999.90;;;;;;;;;;6185570;23;20280;-70
2022/03/14 07:35:21;;;;;;;1999.90;999.90;;;;;;;;;;6185487;23;20166;-71
2022/03/14 07:38:06;;;;;;;1999.90;999.90;;;;;;;;;;6185055;23;20246;-71
2022/03/14 07:40:52;;;;;;;1999.90;999.90;;;;;;;;;;6185018;23;20208;-71
2022/03/14 07:43:37;;;;;;;1999.90;999.90;;;;;;;;;;6185174;23;20253;-70
2022/03/14 07:46:22;;;;;;;1999.90;999.90;;;;;;;;;;6185207;23;20318;-69
2022/03/14 07:49:10;;;;;;;1999.90;999.90;;;;;;;;;;6184869;23;20504;-69
2022/03/14 07:51:55;;;;;;;1999.90;999.90;;;;;;;;;;6185382;23;20243;-70
2022/03/14 07:54:40;;;;;;;1999.90;999.90;;;;;;;;;;6185332;23;20170;-69
2022/03/14 07:57:27;;;;;;;1999.90;999.90;;;;;;;;;;6185928;23;20170;-71
2022/03/14 08:00:13;;;;;;;1999.90;999.90;;;;;;;;;;6184793;23;20174;-70
2022/03/14 08:02:58;;;;;;;1999.90;999.90;;;;;;;;;;6185219;23;20190;-71
2022/03/14 08:05:44;;;;;;;1999.90;999.90;;;;;;;;;;6185311;23;20240;-69
2022/03/14 08:08:29;;;;;;;1999.90;999.90;;;;;;;;;;6184142;23;20173;-70
2022/03/14 08:11:14;;;;;;;1999.90;999.90;;;;;;;;;;6185146;23;20204;-71
2022/03/14 08:14:01;;;;;;;1999.90;999.90;;;;;;;;;;6185130;23;20206;-69
2022/03/14 08:16:46;;;;;;;1999.90;999.90;;;;;;;;;;6185412;23;20503;-70
2022/03/14 08:19:32;;;;;;;1999.90;999.90;;;;;;;;;;6184159;23;20561;-69
2022/03/14 08:22:17;;;;;;;1999.90;999.90;;;;;;;;;;6184084;23;20650;-70
2022/03/14 08:25:02;;;;;;;1999.90;999.90;;;;;;;;;;6184598;23;20216;-69
2022/03/14 08:27:48;;;;;;;1999.90;999.90;;;;;;;;;;6183986;23;20169;-71
2022/03/14 08:30:35;;;;;;;1999.90;999.90;;;;;;;;;;6184618;23;20171;-69
2022/03/14 08:33:22;;;;;;;1999.90;999.90;;;;;;;;;;6184651;23;20253;-70
2022/03/14 08:36:07;;;;;;;1999.90;999.90;;;;;;;;;;6184720;23;20165;-70
2022/03/14 08:38:52;;;;;;;1999.90;999.90;;;;;;;;;;6183912;23;20181;-71
2022/03/14 08:41:37;;;;;;;1999.90;999.90;;;;;;;;;;6184528;23;20538;-69
2022/03/14 08:44:23;;;;;;;1999.90;999.90;;;;;;;;;;6184798;23;20243;-70
2022/03/14 08:47:09;;;;;;;1999.90;999.90;;;;;;;;;;6185087;23;20236;-70
2022/03/14 08:49:54;;;;;;;1999.90;999.90;;;;;;;;;;6183882;23;20166;-69
2022/03/14 08:52:39;;;;;;;1999.90;999.90;;;;;;;;;;6183952;23;20418;-71
2022/03/14 08:55:25;;;;;;;1999.90;999.90;;;;;;;;;;6184959;23;20503;-69
2022/03/14 08:58:10;;;;;;;1999.90;999.90;;;;;;;;;;6183405;23;20513;-71
2022/03/14 09:00:55;;;;;;;1999.90;999.90;;;;;;;;;;6184804;23;20716;-70
2022/03/14 09:03:42;;;;;;;1999.90;999.90;;;;;;;;;;6184693;23;20305;-70
2022/03/14 09:06:28;;;;;;;1999.90;999.90;;;;;;;;;;6184108;23;20193;-70
2022/03/14 09:09:13;;;;;;;1999.90;999.90;;;;;;;;;;6183578;23;20217;-69
2022/03/14 09:11:58;;;;;;;1999.90;999.90;;;;;;;;;;6184121;23;20202;-69
2022/03/14 09:14:43;;;;;;;1999.90;999.90;;;;;;;;;;6184072;23;20514;-71
2022/03/14 09:17:29;;;;;;;1999.90;999.90;;;;;;;;;;6184925;23;20246;-70
2022/03/14 09:20:17;;;;;;;1999.90;999.90;;;;;;;;;;6184374;23;20173;-68
2022/03/14 09:23:02;;;;;;;1999.90;999.90;;;;;;;;;;6184475;23;20222;-68
2022/03/14 09:25:47;;;;;;;1999.90;999.90;;;;;;;;;;6183624;23;20313;-68
2022/03/14 09:28:32;;;;;;;1999.90;999.90;;;;;;;;;;6183330;23;20245;-70
2022/03/14 09:31:17;;;;;;;1999.90;999.90;;;;;;;;;;6184142;23;20209;-68
2022/03/14 09:34:02;;;;;;;1999.90;999.90;;;;;;;;;;6184593;23;20457;-70
2022/03/14 09:36:49;;;;;;;1999.90;999.90;;;;;;;;;;6183743;23;20169;-68
2022/03/14 09:39:34;;;;;;;1999.90;999.90;;;;;;;;;;6183354;23;20218;-70
2022/03/14 09:42:21;;;;;;;1999.90;999.90;;;;;;;;;;6183762;23;20221;-69
2022/03/14 09:45:07;;;;;;;1999.90;999.90;;;;;;;;;;6184094;23;20173;-71
2022/03/14 09:47:53;;;;;;;1999.90;999.90;;;;;;;;;;6182911;23;20173;-69
2022/03/14 09:50:38;;;;;;;1999.90;999.90;;;;;;;;;;6183796;23;20254;-70
2022/03/14 09:53:25;;;;;;;1999.90;999.90;;;;;;;;;;6183833;23;20169;-70
2022/03/14 09:56:10;;;;;;;1999.90;999.90;;;;;;;;;;6183578;23;20213;-70
2022/03/14 09:58:55;;;;;;;1999.90;999.90;;;;;;;;;;6183276;23;20169;-69
2022/03/14 10:01:40;;;;;;;1999.90;999.90;;;;;;;;;;6183577;23;20212;-70
2022/03/14 10:04:25;;;;;;;1999.90;999.90;;;;;;;;;;6183976;23;20503;-71
2022/03/14 10:07:10;;;;;;;1999.90;999.90;;;;;;;;;;6183873;23;20809;-70
2022/03/14 10:09:57;;;;;;;1999.90;999.90;;;;;;;;;;6183214;23;20219;-70
2022/03/14 10:12:43;;;;;;;1999.90;999.90;;;;;;;;;;6183586;23;20543;-69
2022/03/14 10:15:28;;;;;;;1999.90;999.90;;;;;;;;;;6184079;23;20170;-70
2022/03/14 10:18:15;;;;;;;1999.90;999.90;;;;;;;;;;6182291;23;20246;-70
2022/03/14 10:21:05;;;;;;;1999.90;999.90;;;;;;;;;;6183752;23;20204;-71
2022/03/14 10:23:50;;;;;;;1999.90;999.90;;;;;;;;;;6184042;23;20166;-70
2022/03/14 10:26:37;;;;;;;1999.90;999.90;;;;;;;;;;6182041;23;20448;-71
2022/03/14 10:29:25;;;;;;;1999.90;999.90;;;;;;;;;;6182940;23;20168;-70
2022/03/14 10:32:28;;;;;;;1999.90;999.90;;;;;;;;;;6183364;23;20277;-69
2022/03/14 10:35:13;;;;;;;1999.90;999.90;;;;;;;;;;6183714;23;20170;-68
2022/03/14 10:37:59;;;;;;;1999.90;999.90;;;;;;;;;;6182789;23;20179;-70
2022/03/14 10:40:45;;;;;;;1999.90;999.90;;;;;;;;;;6183792;23;20279;-71
2022/03/14 10:43:33;;;;;;;1999.90;999.90;;;;;;;;;;6183491;23;20366;-69
2022/03/14 10:46:26;;;;;;;1999.90;999.90;;;;;;;;;;6182858;23;20591;-70
2022/03/14 10:49:11;;;;;;;1999.90;999.90;;;;;;;;;;6182727;23;20179;-71
2022/03/14 10:51:57;;;;;;;1999.90;999.90;;;;;;;;;;6183400;23;20217;-69
2022/03/14 10:54:42;;;;;;;1999.90;999.90;;;;;;;;;;6183504;23;20170;-70
2022/03/14 10:57:30;;;;;;;1999.90;999.90;;;;;;;;;;6183647;23;20167;-70
2022/03/14 11:00:17;;;;;;;1999.90;999.90;;;;;;;;;;6183470;23;20170;-70
2022/03/14 11:03:03;;;;;;;1999.90;999.90;;;;;;;;;;6183946;23;20685;-70
2022/03/14 11:05:48;;;;;;;1999.90;999.90;;;;;;;;;;6185829;23;20169;-70
2022/03/14 11:08:34;;;;;;;1999.90;999.90;;;;;;;;;;6184718;23;20170;-70
2022/03/14 11:11:20;;;;;;;1999.90;999.90;;;;;;;;;;6185566;23;20205;-70
2022/03/14 11:14:13;;;;;;;1999.90;999.90;;;;;;;;;;6185463;23;20174;-70
2022/03/14 11:17:08;;;;;;;1999.90;999.90;;;;;;;;;;6185714;23;20162;-70
2022/03/14 11:19:55;;;;;;;1999.90;999.90;;;;;;;;;;6184609;23;20166;-70
2022/03/14 11:22:41;;;;;;;1999.90;999.90;;;;;;;;;;6185434;23;20227;-70
2022/03/14 11:25:25;;;;;;;1999.90;999.90;;;;;;;;;;6185520;23;20170;-70
2022/03/14 11:28:11;;;;;;;1999.90;999.90;;;;;;;;;;6184621;23;20237;-69
2022/03/14 11:30:58;;;;;;;1999.90;999.90;;;;;;;;;;6185100;23;20293;-70
2022/03/14 11:33:45;;;;;;;1999.90;999.90;;;;;;;;;;6185264;23;20510;-71
2022/03/14 11:36:31;;;;;;;1999.90;999.90;;;;;;;;;;6185302;23;20169;-70
2022/03/14 11:39:16;;;;;;;1999.90;999.90;;;;;;;;;;6184809;23;20169;-70
2022/03/14 11:42:01;;;;;;;1999.90;999.90;;;;;;;;;;6185049;23;20223;-70
2022/03/14 11:44:47;;;;;;;1999.90;999.90;;;;;;;;;;6185580;23;20217;-70
2022/03/14 11:47:33;;;;;;;1999.90;999.90;;;;;;;;;;6184963;23;20190;-70
2022/03/14 11:50:22;;;;;;;1999.90;999.90;;;;;;;;;;6184958;23;20499;-70
2022/03/14 11:53:07;;;;;;;1999.90;999.90;;;;;;;;;;6185020;23;20229;-68
2022/03/14 11:55:56;;;;;;;1999.90;999.90;;;;;;;;;;6184903;23;20625;-69
2022/03/14 11:58:42;;;;;;;1999.90;999.90;;;;;;;;;;6182365;23;20472;-70
2022/03/14 12:01:28;;;;;;;1999.90;999.90;;;;;;;;;;6184876;23;20217;-72
2022/03/14 12:04:26;;;;;;;1999.90;999.90;;;;;;;;;;6184927;23;20170;-70
2022/03/14 12:07:16;;;;;;;1999.90;999.90;;;;;;;;;;6184578;23;20194;-70
2022/03/14 12:10:21;;;;;;;1999.90;999.90;;;;;;;;;;6184492;23;20166;-67
2022/03/14 12:13:06;;;;;;;1999.90;999.90;;;;;;;;;;6184641;23;20166;-70
2022/03/14 12:15:51;;;;;;;1999.90;999.90;;;;;;;;;;6184497;23;20166;-70
2022/03/14 12:18:39;;;;;;;1999.90;999.90;;;;;;;;;;6183934;23;20166;-70
2022/03/14 12:21:43;;;;;;;1999.90;999.90;;;;;;;;;;6184556;23;20202;-70
2022/03/14 12:24:51;;;;;;;1999.90;999.90;;;;;;;;;;6184723;23;20174;-70
2022/03/14 12:27:36;;;;;;;1999.90;999.90;;;;;;;;;;6184484;23;20729;-70
2022/03/14 12:30:31;;;;;;;1999.90;999.90;;;;;;;;;;6184574;23;20170;-68
2022/03/14 12:33:30;;;;;;;1999.90;999.90;;;;;;;;;;6184918;23;20167;-70
2022/03/14 12:36:34;;;;;;;1999.90;999.90;;;;;;;;;;6184842;23;20214;-69
2022/03/14 12:39:28;;;;;;;1999.90;999.90;;;;;;;;;;6183939;23;20497;-68
2022/03/14 12:42:25;;;;;;;1999.90;999.90;;;;;;;;;;6184737;23;20201;-70
2022/03/14 12:45:17;;;;;;;1999.90;999.90;;;;;;;;;;6184650;23;20657;-70
2022/03/14 12:48:12;;;;;;;1999.90;999.90;;;;;;;;;;6183687;23;20514;-71
2022/03/14 12:51:02;;;;;;;1999.90;999.90;;;;;;;;;;6184240;23;20247;-69
2022/03/14 12:53:50;;;;;;;1999.90;999.90;;;;;;;;;;6184463;23;20170;-70
2022/03/14 12:56:37;;;;;;;1999.90;999.90;;;;;;;;;;6185108;23;20784;-68
2022/03/14 12:59:27;;;;;;;1999.90;999.90;;;;;;;;;;6180828;23;20776;-70
2022/03/14 13:02:21;;;;;;;1999.90;999.90;;;;;;;;;;6183226;23;20595;-70
2022/03/14 13:05:07;;;;;;;1999.90;999.90;;;;;;;;;;6183503;23;20182;-70
2022/03/14 13:08:00;;;;;;;1999.90;999.90;;;;;;;;;;6183081;23;20269;-71
2022/03/14 13:10:46;;;;;;;1999.90;999.90;;;;;;;;;;6184653;23;20326;-70
2022/03/14 13:13:32;;;;;;;1999.90;999.90;;;;;;;;;;6184673;23;20166;-70
2022/03/14 13:16:19;;;;;;;1999.90;999.90;;;;;;;;;;6185050;23;20199;-70
2022/03/14 13:19:05;;;;;;;1999.90;999.90;;;;;;;;;;6183669;23;20166;-69
2022/03/14 13:21:50;;;;;;;1999.90;999.90;;;;;;;;;;6184401;23;20676;-69
2022/03/14 13:24:36;;;;;;;1999.90;999.90;;;;;;;;;;6183017;23;20618;-70
2022/03/14 13:27:21;;;;;;;1999.90;999.90;;;;;;;;;;6185192;23;20214;-70
2022/03/14 13:30:09;;;;;;;1999.90;999.90;;;;;;;;;;6183773;23;20516;-67
2022/03/14 13:32:56;;;;;;;1999.90;999.90;;;;;;;;;;6184829;23;20169;-70
2022/03/14 13:35:43;;;;;;;1999.90;999.90;;;;;;;;;;6184471;23;20170;-71
2022/03/14 13:38:29;;;;;;;1999.90;999.90;;;;;;;;;;6184008;23;20560;-71
2022/03/14 13:41:14;;;;;;;1999.90;999.90;;;;;;;;;;6183996;23;20221;-70
2022/03/14 13:44:02;;;;;;;1999.90;999.90;;;;;;;;;;6184849;23;20617;-69
2022/03/14 13:46:47;;;;;;;1999.90;999.90;;;;;;;;;;6184349;23;20249;-71
2022/03/14 13:49:34;;;;;;;1999.90;999.90;;;;;;;;;;6183513;23;20170;-70
2022/03/14 13:52:26;;;;;;;1999.90;999.90;;;;;;;;;;6184620;23;20292;-71
2022/03/14 13:55:12;;;;;;;1999.90;999.90;;;;;;;;;;6184764;23;20504;-70
2022/03/14 13:57:59;;;;;;;1999.90;999.90;;;;;;;;;;6182827;23;20716;-70
2022/03/14 14:00:50;;;;;;;1999.90;999.90;;;;;;;;;;6183698;23;20202;-71
2022/03/14 14:03:36;;;;;;;1999.90;999.90;;;;;;;;;;6183942;23;20167;-70
2022/03/14 14:06:22;;;;;;;1999.90;999.90;;;;;;;;;;6183908;23;20229;-70
2022/03/14 14:09:16;;;;;;;1999.90;999.90;;;;;;;;;;6183578;23;20167;-69
2022/03/14 14:12:03;;;;;;;1999.90;999.90;;;;;;;;;;6183726;23;20202;-70
2022/03/14 14:14:49;;;;;;;1999.90;999.90;;;;;;;;;;6183849;23;20293;-70
2022/03/14 14:17:36;;;;;;;1999.90;999.90;;;;;;;;;;6183549;23;20621;-68
2022/03/14 14:20:21;;;;;;;1999.90;999.90;;;;;;;;;;6183598;23;20239;-70
2022/03/14 14:23:12;;;;;;;1999.90;999.90;;;;;;;;;;6183557;23;20242;-70
2022/03/14 14:25:57;;;;;;;1999.90;999.90;;;;;;;;;;6184115;23;20167;-70
2022/03/14 14:28:42;;;;;;;1999.90;999.90;;;;;;;;;;6183493;23;20190;-70
2022/03/14 14:31:27;;;;;;;1999.90;999.90;;;;;;;;;;6185911;23;20257;-69
2022/03/14 14:34:12;;;;;;;1999.90;999.90;;;;;;;;;;6185841;23;20517;-70
2022/03/14 14:36:57;;;;;;;1999.90;999.90;;;;;;;;;;6187466;23;20617;-69
2022/03/14 14:39:44;;;;;;;1999.90;999.90;;;;;;;;;;6183059;23;20234;-69
2022/03/14 14:42:29;;;;;;;1999.90;999.90;;;;;;;;;;6183638;23;20210;-70
2022/03/14 14:45:15;;;;;;;1999.90;999.90;;;;;;;;;;6183545;23;20633;-70
2022/03/14 14:48:01;;;;;;;1999.90;999.90;;;;;;;;;;6182822;23;20194;-68
2022/03/14 14:50:47;;;;;;;1999.90;999.90;;;;;;;;;;6183399;23;20206;-70
2022/03/14 14:53:32;;;;;;;1999.90;999.90;;;;;;;;;;6183752;23;20166;-70
2022/03/14 14:56:18;;;;;;;1999.90;999.90;;;;;;;;;;6183633;23;20182;-71
2022/03/14 14:59:03;;;;;;;1999.90;999.90;;;;;;;;;;6182655;23;20681;-70
2022/03/14 15:01:48;;;;;;;1999.90;999.90;;;;;;;;;;6181907;23;20482;-69
2022/03/14 15:04:33;;;;;;;1999.90;999.90;;;;;;;;;;6183538;23;20166;-70
2022/03/14 15:07:18;;;;;;;1999.90;999.90;;;;;;;;;;6183339;23;20737;-70
2022/03/14 15:10:04;;;;;;;1999.90;999.90;;;;;;;;;;6183039;23;20169;-70
2022/03/14 15:12:50;;;;;;;1999.90;999.90;;;;;;;;;;6183398;23;20174;-69
2022/03/14 15:15:35;;;;;;;1999.90;999.90;;;;;;;;;;6183437;23;20551;-70
2022/03/14 15:18:20;;;;;;;1999.90;999.90;;;;;;;;;;6182653;23;20163;-70
2022/03/14 15:21:05;;;;;;;1999.90;999.90;;;;;;;;;;6183387;23;20202;-71
2022/03/14 15:23:50;;;;;;;1999.90;999.90;;;;;;;;;;6183531;23;20503;-69
2022/03/14 15:26:37;;;;;;;1999.90;999.90;;;;;;;;;;6185430;23;20167;-71
2022/03/14 15:29:23;;;;;;;1999.90;999.90;;;;;;;;;;6187445;23;20500;-70
2022/03/14 15:32:09;;;;;;;1999.90;999.90;;;;;;;;;;6183482;23;20550;-71
2022/03/14 15:34:54;;;;;;;1999.90;999.90;;;;;;;;;;6183558;23;20230;-69
2022/03/14 15:37:39;;;;;;;1999.90;999.90;;;;;;;;;;6182772;23;20637;-70
2022/03/14 15:40:25;;;;;;;1999.90;999.90;;;;;;;;;;6183363;23;20170;-70
2022/03/14 15:43:10;;;;;;;1999.90;999.90;;;;;;;;;;6183775;23;20685;-69
2022/03/14 15:45:56;;;;;;;1999.90;999.90;;;;;;;;;;6183407;23;20656;-70
2022/03/14 15:48:42;;;;;;;1999.90;999.90;;;;;;;;;;6182244;23;20578;-69
2022/03/14 15:51:27;;;;;;;1999.90;999.90;;;;;;;;;;6184122;23;20206;-69
2022/03/14 15:54:12;;;;;;;1999.90;999.90;;;;;;;;;;6184978;23;20174;-69
2022/03/14 15:56:57;;;;;;;1999.90;999.90;;;;;;;;;;6185334;23;20170;-72
2022/03/14 15:59:41;;;;;;;1999.90;999.90;;;;;;;;;;6183951;23;20170;-69
2022/03/14 16:02:28;;;;;;;1999.90;999.90;;;;;;;;;;6183769;23;20388;-69
2022/03/14 16:05:14;;;;;;;1999.90;999.90;;;;;;;;;;6185570;23;20618;-69
2022/03/14 16:07:59;;;;;;;1999.90;999.90;;;;;;;;;;6183706;23;20486;-70
2022/03/14 16:10:43;;;;;;;1999.90;999.90;;;;;;;;;;6184537;23;20201;-69
2022/03/14 16:13:31;;;;;;;1999.90;999.90;;;;;;;;;;6184650;23;20218;-68
2022/03/14 16:16:17;;;;;;;1999.90;999.90;;;;;;;;;;6184897;23;20166;-69
2022/03/14 16:19:05;;;;;;;1999.90;999.90;;;;;;;;;;6183921;23;20229;-68
2022/03/14 16:21:49;;;;;;;1999.90;999.90;;;;;;;;;;6185242;23;20229;-68
2022/03/14 16:24:34;;;;;;;1999.90;999.90;;;;;;;;;;6184708;23;20209;-68
2022/03/14 16:27:19;;;;;;;1999.90;999.90;;;;;;;;;;6185093;23;20175;-70
2022/03/14 16:30:05;;;;;;;1999.90;999.90;;;;;;;;;;6184128;23;20166;-67
2022/03/14 16:32:50;;;;;;;1999.90;999.90;;;;;;;;;;6183928;23;20457;-70
2022/03/14 16:35:36;;;;;;;1999.90;999.90;;;;;;;;;;6184809;23;20237;-70
2022/03/14 16:38:21;;;;;;;1999.90;999.90;;;;;;;;;;6183688;23;20242;-69
2022/03/14 16:41:08;;;;;;;1999.90;999.90;;;;;;;;;;6184439;23;20278;-70
2022/03/14 16:43:54;;;;;;;1999.90;999.90;;;;;;;;;;6184962;23;20166;-70
2022/03/14 16:46:40;;;;;;;1999.90;999.90;;;;;;;;;;6184482;23;20270;-68
2022/03/14 16:49:26;;;;;;;1999.90;999.90;;;;;;;;;;6183693;23;20530;-71
2022/03/14 16:52:15;;;;;;;1999.90;999.90;;;;;;;;;;6184461;23;20205;-70
2022/03/14 16:55:01;;;;;;;1999.90;999.90;;;;;;;;;;6185064;23;20294;-69
2022/03/14 16:57:46;;;;;;;1999.90;999.90;;;;;;;;;;6184165;23;20685;-70
2022/03/14 17:00:31;;;;;;;1999.90;999.90;;;;;;;;;;6184437;23;20667;-69
2022/03/14 17:03:16;;;;;;;1999.90;999.90;;;;;;;;;;6184622;23;20174;-71
2022/03/14 17:06:01;;;;;;;1999.90;999.90;;;;;;;;;;6184610;23;20511;-71
2022/03/14 17:08:48;;;;;;;1999.90;999.90;;;;;;;;;;6183524;23;20194;-71
2022/03/14 17:11:33;;;;;;;1999.90;999.90;;;;;;;;;;6185085;23;20202;-71
2022/03/14 17:14:18;;;;;;;1999.90;999.90;;;;;;;;;;6184285;23;20528;-71
2022/03/14 17:17:05;;;;;;;1999.90;999.90;;;;;;;;;;6184177;23;20167;-69
2022/03/14 17:19:51;;;;;;;1999.90;999.90;;;;;;;;;;6183256;23;20241;-70
2022/03/14 17:22:36;;;;;;;1999.90;999.90;;;;;;;;;;6184144;23;20565;-69
2022/03/14 17:25:22;;;;;;;1999.90;999.90;;;;;;;;;;6184467;23;20253;-70
2022/03/14 17:28:07;;;;;;;1999.90;999.90;;;;;;;;;;6182842;23;20190;-70
2022/03/14 17:30:53;;;;;;;1999.90;999.90;;;;;;;;;;6183696;23;20229;-70
2022/03/14 17:33:37;;;;;;;1999.90;999.90;;;;;;;;;;6183643;23;20332;-70
2022/03/14 17:36:22;;;;;;;1999.90;999.90;;;;;;;;;;6183891;23;20174;-68
2022/03/14 17:39:07;;;;;;;1999.90;999.90;;;;;;;;;;6182447;23;20271;-70
2022/03/14 17:41:54;;;;;;;1999.90;999.90;;;;;;;;;;6184082;23;20700;-70
2022/03/14 17:44:39;;;;;;;1999.90;999.90;;;;;;;;;;6183996;23;20173;-69
2022/03/14 17:47:24;;;;;;;1999.90;999.90;;;;;;;;;;6183965;23;20242;-69
2022/03/14 17:50:09;;;;;;;1999.90;999.90;;;;;;;;;;6183454;23;20518;-70
2022/03/14 17:52:54;;;;;;;1999.90;999.90;;;;;;;;;;6184292;23;20182;-71
2022/03/14 17:55:39;;;;;;;1999.90;999.90;;;;;;;;;;6184192;23;20177;-69
2022/03/14 17:58:26;;;;;;;1999.90;999.90;;;;;;;;;;6182687;23;20225;-68
2022/03/14 18:01:11;;;;;;;1999.90;999.90;;;;;;;;;;6183868;23;20297;-73
2022/03/14 18:03:56;;;;;;;1999.90;999.90;;;;;;;;;;6183373;23;20422;-71
2022/03/14 18:06:41;;;;;;;1999.90;999.90;;;;;;;;;;6184243;23;20174;-69
2022/03/14 18:09:26;;;;;;;1999.90;999.90;;;;;;;;;;6183049;23;20520;-72
2022/03/14 18:12:11;;;;;;;1999.90;999.90;;;;;;;;;;6184422;23;20716;-71
2022/03/14 18:14:58;;;;;;;1999.90;999.90;;;;;;;;;;6183362;23;20169;-70
2022/03/14 18:17:43;;;;;;;1999.90;999.90;;;;;;;;;;6183490;23;20166;-69
2022/03/14 18:20:28;;;;;;;1999.90;999.90;;;;;;;;;;6183440;23;20249;-69
2022/03/14 18:23:13;;;;;;;1999.90;999.90;;;;;;;;;;6184061;23;20298;-70
2022/03/14 18:26:00;;;;;;;1999.90;999.90;;;;;;;;;;6183805;23;20173;-69
2022/03/14 18:28:45;;;;;;;1999.90;999.90;;;;;;;;;;6182571;23;20193;-71
2022/03/14 18:31:31;;;;;;;1999.90;999.90;;;;;;;;;;6183594;23;20538;-70
2022/03/14 18:34:18;;;;;;;1999.90;999.90;;;;;;;;;;6183767;23;20222;-70
2022/03/14 18:37:04;;;;;;;1999.90;999.90;;;;;;;;;;6183291;23;20618;-69
2022/03/14 18:39:49;;;;;;;1999.90;999.90;;;;;;;;;;6182730;23;20188;-69
2022/03/14 18:42:35;;;;;;;1999.90;999.90;;;;;;;;;;6183607;23;20202;-70
2022/03/14 18:45:20;;;;;;;1999.90;999.90;;;;;;;;;;6183535;23;20173;-71
2022/03/14 18:48:06;;;;;;;1999.90;999.90;;;;;;;;;;6182297;23;20249;-70
2022/03/14 18:50:51;;;;;;;1999.90;999.90;;;;;;;;;;6183668;23;20731;-69
2022/03/14 18:53:36;;;;;;;1999.90;999.90;;;;;;;;;;6183257;23;20169;-69
2022/03/14 18:56:22;;;;;;;1999.90;999.90;;;;;;;;;;6183280;23;20174;-70
2022/03/14 18:59:07;;;;;;;1999.90;999.90;;;;;;;;;;6182656;23;20181;-70
2022/03/14 19:01:52;;;;;;;1999.90;999.90;;;;;;;;;;6183058;23;20684;-68
2022/03/14 19:04:39;;;;;;;1999.90;999.90;;;;;;;;;;6183448;23;20256;-70
2022/03/14 19:07:24;;;;;;;1999.90;999.90;;;;;;;;;;6181806;23;20376;-70
2022/03/14 19:10:09;;;;;;;1999.90;999.90;;;;;;;;;;6182049;23;20671;-69
2022/03/14 19:12:55;;;;;;;1999.90;999.90;;;;;;;;;;6182709;23;20216;-70
2022/03/14 19:15:42;;;;;;;1999.90;999.90;;;;;;;;;;6182951;23;20463;-68
2022/03/14 19:18:27;;;;;;;1999.90;999.90;;;;;;;;;;6182240;23;20165;-70
2022/03/14 19:21:14;;;;;;;1999.90;999.90;;;;;;;;;;6183310;23;20543;-69
2022/03/14 19:24:00;;;;;;;1999.90;999.90;;;;;;;;;;6182790;23;20175;-70
2022/03/14 19:26:45;;;;;;;1999.90;999.90;;;;;;;;;;6185345;23;20219;-70
2022/03/14 19:29:31;;;;;;;1999.90;999.90;;;;;;;;;;6184374;23;20323;-69
2022/03/14 19:32:16;;;;;;;1999.90;999.90;;;;;;;;;;6184992;23;20205;-70
2022/03/14 19:35:01;;;;;;;1999.90;999.90;;;;;;;;;;6185033;23;20250;-70
2022/03/14 19:37:48;;;;;;;1999.90;999.90;;;;;;;;;;6183939;23;20369;-70
2022/03/14 19:40:32;;;;;;;1999.90;999.90;;;;;;;;;;6183324;23;20294;-70
2022/03/14 19:43:18;;;;;;;1999.90;999.90;;;;;;;;;;6184957;23;20171;-68
2022/03/14 19:46:04;;;;;;;1999.90;999.90;;;;;;;;;;6184933;23;20166;-70
2022/03/14 19:48:50;;;;;;;1999.90;999.90;;;;;;;;;;6183500;23;20660;-70
2022/03/14 19:51:37;;;;;;;1999.90;999.90;;;;;;;;;;6183896;23;20207;-70
2022/03/14 19:54:23;;;;;;;1999.90;999.90;;;;;;;;;;6185005;23;20167;-69
2022/03/14 19:57:09;;;;;;;1999.90;999.90;;;;;;;;;;6184974;23;20222;-69
2022/03/14 19:59:54;;;;;;;1999.90;999.90;;;;;;;;;;6183662;23;20514;-70
2022/03/14 20:02:39;;;;;;;1999.90;999.90;;;;;;;;;;6185040;23;20209;-70
2022/03/14 20:05:27;;;;;;;1999.90;999.90;;;;;;;;;;6185026;23;20299;-70
2022/03/14 20:08:12;;;;;;;1999.90;999.90;;;;;;;;;;6184318;23;20166;-70
2022/03/14 20:10:58;;;;;;;1999.90;999.90;;;;;;;;;;6184470;23;20203;-69
2022/03/14 20:13:43;;;;;;;1999.90;999.90;;;;;;;;;;6185439;23;20166;-69
2022/03/14 20:16:29;;;;;;;1999.90;999.90;;;;;;;;;;6184531;23;20509;-70
2022/03/14 20:19:14;;;;;;;1999.90;999.90;;;;;;;;;;6183708;23;20174;-70
2022/03/14 20:21:59;;;;;;;1999.90;999.90;;;;;;;;;;6184224;23;20654;-68
2022/03/14 20:24:45;;;;;;;1999.90;999.90;;;;;;;;;;6185017;23;20233;-69
2022/03/14 20:27:31;;;;;;;1999.90;999.90;;;;;;;;;;6184936;23;20563;-70
2022/03/14 20:30:17;;;;;;;1999.90;999.90;;;;;;;;;;6184794;23;20338;-70
2022/03/14 20:33:02;;;;;;;1999.90;999.90;;;;;;;;;;6185100;23;20213;-70
2022/03/14 20:35:47;;;;;;;1999.90;999.90;;;;;;;;;;6184742;23;20166;-69
2022/03/14 20:38:32;;;;;;;1999.90;999.90;;;;;;;;;;6182628;23;20380;-70
2022/03/14 20:41:17;;;;;;;1999.90;999.90;;;;;;;;;;6184514;23;20205;-70
2022/03/14 20:44:04;;;;;;;1999.90;999.90;;;;;;;;;;6184686;23;20166;-70
2022/03/14 20:46:49;;;;;;;1999.90;999.90;;;;;;;;;;6184119;23;20706;-70
2022/03/14 20:49:34;;;;;;;1999.90;999.90;;;;;;;;;;6183513;23;20194;-70
2022/03/14 20:52:19;;;;;;;1999.90;999.90;;;;;;;;;;6184401;23;20648;-70
2022/03/14 20:55:04;;;;;;;1999.90;999.90;;;;;;;;;;6185045;23;20269;-69
2022/03/14 20:57:49;;;;;;;1999.90;999.90;;;;;;;;;;6183425;23;20169;-68
2022/03/14 21:00:36;;;;;;;1999.90;999.90;;;;;;;;;;6184713;23;20202;-69
2022/03/14 21:03:21;;;;;;;1999.90;999.90;;;;;;;;;;6155947;23;20349;-69
2022/03/14 21:06:06;;;;;;;1999.90;999.90;;;;;;;;;;6154569;23;20685;-69
2022/03/14 21:08:51;;;;;;;1999.90;999.90;;;;;;;;;;6152724;23;20939;-69
2022/03/14 21:11:38;;;;;;;1999.90;999.90;;;;;;;;;;6155159;23;20206;-68
2022/03/14 21:14:23;;;;;;;1999.90;999.90;;;;;;;;;;6154454;23;20178;-68
2022/03/14 21:17:09;;;;;;;1999.90;999.90;;;;;;;;;;6154303;23;20167;-69
2022/03/14 21:19:54;;;;;;;1999.90;999.90;;;;;;;;;;6153363;23;20502;-69
2022/03/14 21:22:40;;;;;;;1999.90;999.90;;;;;;;;;;6154495;23;20330;-69
2022/03/14 21:25:25;;;;;;;1999.90;999.90;;;;;;;;;;6154265;23;20250;-69
2022/03/14 21:28:10;;;;;;;1999.90;999.90;;;;;;;;;;6153147;23;20637;-69